sensor_id;sensor_type;location;lat;lon;timestamp;pressure;altitude;pressure_sealevel;temperature
68012;BMP180;54794;48.348;7.878;2024-03-17T00:01:08;99788.00;;;10.60
68012;BMP180;54794;48.348;7.878;2024-03-17T00:03:34;99791.00;;;10.50
68012;BMP180;54794;48.348;7.878;2024-03-17T00:06:01;99788.00;;;10.30
68012;BMP180;54794;48.348;7.878;2024-03-17T00:08:27;99794.00;;;10.50
68012;BMP180;54794;48.348;7.878;2024-03-17T00:10:54;99789.00;;;10.90
68012;BMP180;54794;48.348;7.878;2024-03-17T00:13:24;99783.00;;;10.80
68012;BMP180;54794;48.348;7.878;2024-03-17T00:15:50;99785.00;;;10.70
68012;BMP180;54794;48.348;7.878;2024-03-17T00:18:17;99781.00;;;10.30
68012;BMP180;54794;48.348;7.878;2024-03-17T00:20:44;99795.00;;;10.20
68012;BMP180;54794;48.348;7.878;2024-03-17T00:23:10;99793.00;;;10.50
68012;BMP180;54794;48.348;7.878;2024-03-17T00:25:38;99783.00;;;10.30
68012;BMP180;54794;48.348;7.878;2024-03-17T00:28:05;99778.00;;;10.20
68012;BMP180;54794;48.348;7.878;2024-03-17T00:30:31;99787.00;;;10.00
68012;BMP180;54794;48.348;7.878;2024-03-17T00:32:59;99773.00;;;10.00
68012;BMP180;54794;48.348;7.878;2024-03-17T00:35:26;99783.00;;;9.70
68012;BMP180;54794;48.348;7.878;2024-03-17T00:37:52;99783.00;;;10.00
68012;BMP180;54794;48.348;7.878;2024-03-17T00:40:20;99774.00;;;9.90
68012;BMP180;54794;48.348;7.878;2024-03-17T00:42:47;99772.00;;;10.30
68012;BMP180;54794;48.348;7.878;2024-03-17T00:45:13;99768.00;;;10.50
68012;BMP180;54794;48.348;7.878;2024-03-17T00:47:39;99761.00;;;10.30
68012;BMP180;54794;48.348;7.878;2024-03-17T00:50:06;99762.00;;;9.90
68012;BMP180;54794;48.348;7.878;2024-03-17T00:52:34;99759.00;;;10.10
68012;BMP180;54794;48.348;7.878;2024-03-17T00:55:01;99764.00;;;10.10
68012;BMP180;54794;48.348;7.878;2024-03-17T00:57:27;99751.00;;;10.00
68012;BMP180;54794;48.348;7.878;2024-03-17T00:59:53;99747.00;;;10.10
68012;BMP180;54794;48.348;7.878;2024-03-17T01:02:19;99743.00;;;10.10
68012;BMP180;54794;48.348;7.878;2024-03-17T01:04:47;99739.00;;;10.10
68012;BMP180;54794;48.348;7.878;2024-03-17T01:07:13;99744.00;;;10.10
68012;BMP180;54794;48.348;7.878;2024-03-17T01:09:39;99742.00;;;9.80
68012;BMP180;54794;48.348;7.878;2024-03-17T01:12:05;99747.00;;;9.90
68012;BMP180;54794;48.348;7.878;2024-03-17T01:14:34;99736.00;;;10.00
68012;BMP180;54794;48.348;7.878;2024-03-17T01:17:01;99731.00;;;10.10
68012;BMP180;54794;48.348;7.878;2024-03-17T01:19:31;99726.00;;;10.00
68012;BMP180;54794;48.348;7.878;2024-03-17T01:21:59;99729.00;;;10.30
68012;BMP180;54794;48.348;7.878;2024-03-17T01:24:25;99724.00;;;10.40
68012;BMP180;54794;48.348;7.878;2024-03-17T01:27:00;99730.00;;;10.30
68012;BMP180;54794;48.348;7.878;2024-03-17T01:29:27;99718.00;;;10.30
68012;BMP180;54794;48.348;7.878;2024-03-17T01:31:53;99715.00;;;10.30
68012;BMP180;54794;48.348;7.878;2024-03-17T01:34:19;99713.00;;;10.40
68012;BMP180;54794;48.348;7.878;2024-03-17T01:36:48;99710.00;;;10.40
68012;BMP180;54794;48.348;7.878;2024-03-17T01:39:14;99702.00;;;10.20
68012;BMP180;54794;48.348;7.878;2024-03-17T01:41:42;99706.00;;;10.20
68012;BMP180;54794;48.348;7.878;2024-03-17T01:44:21;99701.00;;;10.20
68012;BMP180;54794;48.348;7.878;2024-03-17T01:46:48;99697.00;;;10.40
68012;BMP180;54794;48.348;7.878;2024-03-17T01:49:14;99694.00;;;10.50
68012;BMP180;54794;48.348;7.878;2024-03-17T01:51:40;99689.00;;;10.40
68012;BMP180;54794;48.348;7.878;2024-03-17T01:54:08;99691.00;;;10.40
68012;BMP180;54794;48.348;7.878;2024-03-17T01:56:34;99691.00;;;10.50
68012;BMP180;54794;48.348;7.878;2024-03-17T01:59:01;99691.00;;;10.50
68012;BMP180;54794;48.348;7.878;2024-03-17T02:01:27;99684.00;;;10.40
68012;BMP180;54794;48.348;7.878;2024-03-17T02:03:53;99672.00;;;10.60
68012;BMP180;54794;48.348;7.878;2024-03-17T02:06:19;99683.00;;;10.90
68012;BMP180;54794;48.348;7.878;2024-03-17T02:08:54;99681.00;;;11.00
68012;BMP180;54794;48.348;7.878;2024-03-17T02:11:32;99683.00;;;10.90
68012;BMP180;54794;48.348;7.878;2024-03-17T02:13:59;99683.00;;;10.40
68012;BMP180;54794;48.348;7.878;2024-03-17T02:16:26;99681.00;;;10.20
68012;BMP180;54794;48.348;7.878;2024-03-17T02:18:56;99684.00;;;10.00
68012;BMP180;54794;48.348;7.878;2024-03-17T02:21:24;99685.00;;;10.30
68012;BMP180;54794;48.348;7.878;2024-03-17T02:23:51;99677.00;;;10.30
68012;BMP180;54794;48.348;7.878;2024-03-17T02:26:18;99675.00;;;10.60
68012;BMP180;54794;48.348;7.878;2024-03-17T02:28:46;99680.00;;;10.60
68012;BMP180;54794;48.348;7.878;2024-03-17T02:31:15;99675.00;;;10.50
68012;BMP180;54794;48.348;7.878;2024-03-17T02:33:43;99670.00;;;10.40
68012;BMP180;54794;48.348;7.878;2024-03-17T02:36:10;99658.00;;;10.50
68012;BMP180;54794;48.348;7.878;2024-03-17T02:38:39;99663.00;;;10.50
68012;BMP180;54794;48.348;7.878;2024-03-17T02:41:26;99668.00;;;10.60
68012;BMP180;54794;48.348;7.878;2024-03-17T02:43:52;99666.00;;;10.30
68012;BMP180;54794;48.348;7.878;2024-03-17T02:46:19;99675.00;;;10.40
68012;BMP180;54794;48.348;7.878;2024-03-17T02:48:53;99669.00;;;10.60
68012;BMP180;54794;48.348;7.878;2024-03-17T02:51:21;99673.00;;;10.60
68012;BMP180;54794;48.348;7.878;2024-03-17T02:53:49;99672.00;;;10.90
68012;BMP180;54794;48.348;7.878;2024-03-17T02:56:17;99668.00;;;10.70
68012;BMP180;54794;48.348;7.878;2024-03-17T02:58:45;99661.00;;;10.50
68012;BMP180;54794;48.348;7.878;2024-03-17T03:01:12;99663.00;;;10.10
68012;BMP180;54794;48.348;7.878;2024-03-17T03:03:38;99654.00;;;10.20
68012;BMP180;54794;48.348;7.878;2024-03-17T03:06:05;99661.00;;;10.50
68012;BMP180;54794;48.348;7.878;2024-03-17T03:08:41;99660.00;;;10.70
68012;BMP180;54794;48.348;7.878;2024-03-17T03:11:09;99657.00;;;10.70
68012;BMP180;54794;48.348;7.878;2024-03-17T03:13:40;99652.00;;;10.60
68012;BMP180;54794;48.348;7.878;2024-03-17T03:16:07;99648.00;;;10.50
68012;BMP180;54794;48.348;7.878;2024-03-17T03:18:35;99654.00;;;10.40
68012;BMP180;54794;48.348;7.878;2024-03-17T03:21:01;99658.00;;;10.50
68012;BMP180;54794;48.348;7.878;2024-03-17T03:23:27;99650.00;;;10.40
68012;BMP180;54794;48.348;7.878;2024-03-17T03:26:00;99647.00;;;10.40
68012;BMP180;54794;48.348;7.878;2024-03-17T03:28:32;99647.00;;;10.50
68012;BMP180;54794;48.348;7.878;2024-03-17T03:30:59;99649.00;;;10.50
68012;BMP180;54794;48.348;7.878;2024-03-17T03:33:26;99644.00;;;10.30
68012;BMP180;54794;48.348;7.878;2024-03-17T03:35:53;99657.00;;;10.10
68012;BMP180;54794;48.348;7.878;2024-03-17T03:38:19;99653.00;;;10.10
68012;BMP180;54794;48.348;7.878;2024-03-17T03:40:45;99651.00;;;10.40
68012;BMP180;54794;48.348;7.878;2024-03-17T03:43:14;99648.00;;;10.40
68012;BMP180;54794;48.348;7.878;2024-03-17T03:45:40;99648.00;;;10.70
68012;BMP180;54794;48.348;7.878;2024-03-17T03:48:08;99654.00;;;10.60
68012;BMP180;54794;48.348;7.878;2024-03-17T03:50:40;99654.00;;;10.60
68012;BMP180;54794;48.348;7.878;2024-03-17T03:53:06;99661.00;;;10.80
68012;BMP180;54794;48.348;7.878;2024-03-17T03:55:32;99659.00;;;10.90
68012;BMP180;54794;48.348;7.878;2024-03-17T03:57:58;99654.00;;;11.00
68012;BMP180;54794;48.348;7.878;2024-03-17T04:00:24;99645.00;;;10.60
68012;BMP180;54794;48.348;7.878;2024-03-17T04:02:52;99646.00;;;10.40
68012;BMP180;54794;48.348;7.878;2024-03-17T04:05:19;99652.00;;;10.40
68012;BMP180;54794;48.348;7.878;2024-03-17T04:07:47;99652.00;;;10.50
68012;BMP180;54794;48.348;7.878;2024-03-17T04:10:15;99643.00;;;10.50
68012;BMP180;54794;48.348;7.878;2024-03-17T04:12:42;99648.00;;;10.50
68012;BMP180;54794;48.348;7.878;2024-03-17T04:15:08;99652.00;;;10.10
68012;BMP180;54794;48.348;7.878;2024-03-17T04:17:36;99656.00;;;10.20
68012;BMP180;54794;48.348;7.878;2024-03-17T04:20:04;99648.00;;;10.30
68012;BMP180;54794;48.348;7.878;2024-03-17T04:22:34;99654.00;;;9.90
68012;BMP180;54794;48.348;7.878;2024-03-17T04:25:01;99654.00;;;10.20
68012;BMP180;54794;48.348;7.878;2024-03-17T04:27:27;99648.00;;;10.30
68012;BMP180;54794;48.348;7.878;2024-03-17T04:29:56;99642.00;;;10.30
68012;BMP180;54794;48.348;7.878;2024-03-17T04:32:23;99656.00;;;10.30
68012;BMP180;54794;48.348;7.878;2024-03-17T04:34:50;99647.00;;;10.20
68012;BMP180;54794;48.348;7.878;2024-03-17T04:37:16;99649.00;;;10.50
68012;BMP180;54794;48.348;7.878;2024-03-17T04:39:44;99656.00;;;10.60
68012;BMP180;54794;48.348;7.878;2024-03-17T04:42:16;99648.00;;;10.70
68012;BMP180;54794;48.348;7.878;2024-03-17T04:44:45;99649.00;;;10.60
68012;BMP180;54794;48.348;7.878;2024-03-17T04:47:12;99645.00;;;10.70
68012;BMP180;54794;48.348;7.878;2024-03-17T04:49:41;99642.00;;;10.50
68012;BMP180;54794;48.348;7.878;2024-03-17T04:52:12;99646.00;;;10.60
68012;BMP180;54794;48.348;7.878;2024-03-17T04:54:38;99640.00;;;10.30
68012;BMP180;54794;48.348;7.878;2024-03-17T04:57:07;99643.00;;;10.10
68012;BMP180;54794;48.348;7.878;2024-03-17T04:59:34;99647.00;;;9.90
68012;BMP180;54794;48.348;7.878;2024-03-17T05:02:01;99647.00;;;9.80
68012;BMP180;54794;48.348;7.878;2024-03-17T05:04:29;99647.00;;;10.00
68012;BMP180;54794;48.348;7.878;2024-03-17T05:06:54;99646.00;;;10.30
68012;BMP180;54794;48.348;7.878;2024-03-17T05:09:20;99638.00;;;10.40
68012;BMP180;54794;48.348;7.878;2024-03-17T05:11:46;99640.00;;;10.10
68012;BMP180;54794;48.348;7.878;2024-03-17T05:14:15;99635.00;;;9.90
68012;BMP180;54794;48.348;7.878;2024-03-17T05:16:41;99631.00;;;9.70
68012;BMP180;54794;48.348;7.878;2024-03-17T05:19:07;99634.00;;;9.60
68012;BMP180;54794;48.348;7.878;2024-03-17T05:21:34;99632.00;;;9.70
68012;BMP180;54794;48.348;7.878;2024-03-17T05:24:04;99635.00;;;9.60
68012;BMP180;54794;48.348;7.878;2024-03-17T05:26:30;99639.00;;;9.60
68012;BMP180;54794;48.348;7.878;2024-03-17T05:28:57;99642.00;;;10.00
68012;BMP180;54794;48.348;7.878;2024-03-17T05:31:23;99647.00;;;9.30
68012;BMP180;54794;48.348;7.878;2024-03-17T05:33:49;99651.00;;;9.50
68012;BMP180;54794;48.348;7.878;2024-03-17T05:36:15;99648.00;;;9.10
68012;BMP180;54794;48.348;7.878;2024-03-17T05:38:41;99651.00;;;8.90
68012;BMP180;54794;48.348;7.878;2024-03-17T05:41:09;99661.00;;;8.80
68012;BMP180;54794;48.348;7.878;2024-03-17T05:43:37;99657.00;;;8.80
68012;BMP180;54794;48.348;7.878;2024-03-17T05:46:08;99654.00;;;8.90
68012;BMP180;54794;48.348;7.878;2024-03-17T05:48:36;99653.00;;;9.00
68012;BMP180;54794;48.348;7.878;2024-03-17T05:51:10;99657.00;;;9.30
68012;BMP180;54794;48.348;7.878;2024-03-17T05:53:38;99660.00;;;9.50
68012;BMP180;54794;48.348;7.878;2024-03-17T05:56:10;99664.00;;;9.60
68012;BMP180;54794;48.348;7.878;2024-03-17T05:58:42;99667.00;;;9.30
68012;BMP180;54794;48.348;7.878;2024-03-17T06:01:11;99652.00;;;9.60
68012;BMP180;54794;48.348;7.878;2024-03-17T06:03:37;99659.00;;;9.80
68012;BMP180;54794;48.348;7.878;2024-03-17T06:06:06;99655.00;;;9.70
68012;BMP180;54794;48.348;7.878;2024-03-17T06:08:38;99658.00;;;9.80
68012;BMP180;54794;48.348;7.878;2024-03-17T06:11:05;99647.00;;;9.90
68012;BMP180;54794;48.348;7.878;2024-03-17T06:13:31;99654.00;;;9.70
68012;BMP180;54794;48.348;7.878;2024-03-17T06:15:57;99654.00;;;9.70
68012;BMP180;54794;48.348;7.878;2024-03-17T06:18:27;99656.00;;;9.40
68012;BMP180;54794;48.348;7.878;2024-03-17T06:20:53;99642.00;;;9.50
68012;BMP180;54794;48.348;7.878;2024-03-17T06:23:19;99649.00;;;9.50
68012;BMP180;54794;48.348;7.878;2024-03-17T06:25:48;99647.00;;;9.80
68012;BMP180;54794;48.348;7.878;2024-03-17T06:28:16;99628.00;;;10.00
68012;BMP180;54794;48.348;7.878;2024-03-17T06:30:55;99644.00;;;10.10
68012;BMP180;54794;48.348;7.878;2024-03-17T06:33:25;99640.00;;;9.70
68012;BMP180;54794;48.348;7.878;2024-03-17T06:35:51;99640.00;;;9.70
68012;BMP180;54794;48.348;7.878;2024-03-17T06:38:17;99638.00;;;9.80
68012;BMP180;54794;48.348;7.878;2024-03-17T06:40:49;99642.00;;;9.60
68012;BMP180;54794;48.348;7.878;2024-03-17T06:43:16;99642.00;;;9.60
68012;BMP180;54794;48.348;7.878;2024-03-17T06:45:42;99643.00;;;9.70
68012;BMP180;54794;48.348;7.878;2024-03-17T06:48:08;99637.00;;;9.70
68012;BMP180;54794;48.348;7.878;2024-03-17T06:50:34;99648.00;;;9.60
68012;BMP180;54794;48.348;7.878;2024-03-17T06:52:59;99647.00;;;9.80
68012;BMP180;54794;48.348;7.878;2024-03-17T06:55:25;99643.00;;;9.90
68012;BMP180;54794;48.348;7.878;2024-03-17T06:57:51;99643.00;;;10.00
68012;BMP180;54794;48.348;7.878;2024-03-17T07:00:17;99648.00;;;9.70
68012;BMP180;54794;48.348;7.878;2024-03-17T07:02:44;99647.00;;;10.10
68012;BMP180;54794;48.348;7.878;2024-03-17T07:05:14;99645.00;;;10.20
68012;BMP180;54794;48.348;7.878;2024-03-17T07:07:43;99652.00;;;10.40
68012;BMP180;54794;48.348;7.878;2024-03-17T07:10:11;99647.00;;;10.20
68012;BMP180;54794;48.348;7.878;2024-03-17T07:12:38;99654.00;;;10.10
68012;BMP180;54794;48.348;7.878;2024-03-17T07:15:05;99662.00;;;10.10
68012;BMP180;54794;48.348;7.878;2024-03-17T07:17:31;99667.00;;;9.90
68012;BMP180;54794;48.348;7.878;2024-03-17T07:19:58;99662.00;;;9.90
68012;BMP180;54794;48.348;7.878;2024-03-17T07:22:23;99656.00;;;9.90
68012;BMP180;54794;48.348;7.878;2024-03-17T07:24:53;99662.00;;;9.90
68012;BMP180;54794;48.348;7.878;2024-03-17T07:27:29;99662.00;;;9.90
68012;BMP180;54794;48.348;7.878;2024-03-17T07:29:55;99667.00;;;10.10
68012;BMP180;54794;48.348;7.878;2024-03-17T07:32:21;99662.00;;;10.10
68012;BMP180;54794;48.348;7.878;2024-03-17T07:34:49;99666.00;;;10.40
68012;BMP180;54794;48.348;7.878;2024-03-17T07:37:16;99667.00;;;10.70
68012;BMP180;54794;48.348;7.878;2024-03-17T07:39:42;99657.00;;;10.70
68012;BMP180;54794;48.348;7.878;2024-03-17T07:42:08;99653.00;;;11.10
68012;BMP180;54794;48.348;7.878;2024-03-17T07:44:34;99646.00;;;11.00
68012;BMP180;54794;48.348;7.878;2024-03-17T07:47:01;99654.00;;;11.30
68012;BMP180;54794;48.348;7.878;2024-03-17T07:49:30;99648.00;;;11.40
68012;BMP180;54794;48.348;7.878;2024-03-17T07:51:56;99647.00;;;11.10
68012;BMP180;54794;48.348;7.878;2024-03-17T07:54:26;99648.00;;;10.60
68012;BMP180;54794;48.348;7.878;2024-03-17T07:56:53;99656.00;;;10.50
68012;BMP180;54794;48.348;7.878;2024-03-17T07:59:19;99664.00;;;10.10
68012;BMP180;54794;48.348;7.878;2024-03-17T08:01:45;99661.00;;;10.20
68012;BMP180;54794;48.348;7.878;2024-03-17T08:04:11;99657.00;;;10.40
68012;BMP180;54794;48.348;7.878;2024-03-17T08:06:41;99652.00;;;10.40
68012;BMP180;54794;48.348;7.878;2024-03-17T08:09:10;99646.00;;;10.70
68012;BMP180;54794;48.348;7.878;2024-03-17T08:11:37;99649.00;;;11.00
68012;BMP180;54794;48.348;7.878;2024-03-17T08:14:04;99656.00;;;11.00
68012;BMP180;54794;48.348;7.878;2024-03-17T08:16:31;99657.00;;;11.20
68012;BMP180;54794;48.348;7.878;2024-03-17T08:18:57;99653.00;;;11.50
68012;BMP180;54794;48.348;7.878;2024-03-17T08:21:23;99646.00;;;11.70
68012;BMP180;54794;48.348;7.878;2024-03-17T08:23:50;99647.00;;;11.80
68012;BMP180;54794;48.348;7.878;2024-03-17T08:26:16;99647.00;;;11.90
68012;BMP180;54794;48.348;7.878;2024-03-17T08:28:42;99641.00;;;12.00
68012;BMP180;54794;48.348;7.878;2024-03-17T08:31:08;99636.00;;;11.80
68012;BMP180;54794;48.348;7.878;2024-03-17T08:33:34;99640.00;;;11.90
68012;BMP180;54794;48.348;7.878;2024-03-17T08:36:06;99637.00;;;11.90
68012;BMP180;54794;48.348;7.878;2024-03-17T08:38:37;99646.00;;;11.80
68012;BMP180;54794;48.348;7.878;2024-03-17T08:41:06;99638.00;;;11.50
68012;BMP180;54794;48.348;7.878;2024-03-17T08:43:33;99644.00;;;11.60
68012;BMP180;54794;48.348;7.878;2024-03-17T08:46:07;99640.00;;;11.50
68012;BMP180;54794;48.348;7.878;2024-03-17T08:48:36;99637.00;;;11.70
68012;BMP180;54794;48.348;7.878;2024-03-17T08:51:05;99637.00;;;11.70
68012;BMP180;54794;48.348;7.878;2024-03-17T08:53:32;99633.00;;;11.80
68012;BMP180;54794;48.348;7.878;2024-03-17T08:55:59;99633.00;;;11.80
68012;BMP180;54794;48.348;7.878;2024-03-17T08:58:27;99646.00;;;11.60
68012;BMP180;54794;48.348;7.878;2024-03-17T09:00:53;99635.00;;;12.10
68012;BMP180;54794;48.348;7.878;2024-03-17T09:03:20;99640.00;;;11.80
68012;BMP180;54794;48.348;7.878;2024-03-17T09:05:48;99642.00;;;11.90
68012;BMP180;54794;48.348;7.878;2024-03-17T09:08:23;99649.00;;;12.40
68012;BMP180;54794;48.348;7.878;2024-03-17T09:10:51;99648.00;;;12.10
68012;BMP180;54794;48.348;7.878;2024-03-17T09:13:23;99649.00;;;12.40
68012;BMP180;54794;48.348;7.878;2024-03-17T09:15:58;99648.00;;;12.40
68012;BMP180;54794;48.348;7.878;2024-03-17T09:18:33;99651.00;;;12.60
68012;BMP180;54794;48.348;7.878;2024-03-17T09:21:04;99639.00;;;12.80
68012;BMP180;54794;48.348;7.878;2024-03-17T09:23:31;99643.00;;;12.60
68012;BMP180;54794;48.348;7.878;2024-03-17T09:28:29;99638.00;;;12.50
68012;BMP180;54794;48.348;7.878;2024-03-17T09:30:57;99645.00;;;12.50
68012;BMP180;54794;48.348;7.878;2024-03-17T09:33:24;99635.00;;;12.60
68012;BMP180;54794;48.348;7.878;2024-03-17T09:35:58;99631.00;;;12.80
68012;BMP180;54794;48.348;7.878;2024-03-17T09:38:25;99639.00;;;12.30
68012;BMP180;54794;48.348;7.878;2024-03-17T09:40:51;99644.00;;;12.60
68012;BMP180;54794;48.348;7.878;2024-03-17T09:43:20;99629.00;;;12.70
68012;BMP180;54794;48.348;7.878;2024-03-17T09:45:47;99631.00;;;12.90
68012;BMP180;54794;48.348;7.878;2024-03-17T09:48:15;99621.00;;;13.00
68012;BMP180;54794;48.348;7.878;2024-03-17T09:50:54;99614.00;;;13.20
68012;BMP180;54794;48.348;7.878;2024-03-17T09:53:31;99620.00;;;13.00
68012;BMP180;54794;48.348;7.878;2024-03-17T09:58:24;99616.00;;;13.30
68012;BMP180;54794;48.348;7.878;2024-03-17T10:00:50;99609.00;;;12.80
68012;BMP180;54794;48.348;7.878;2024-03-17T10:06:16;99628.00;;;13.10
68012;BMP180;54794;48.348;7.878;2024-03-17T10:08:48;99623.00;;;13.00
68012;BMP180;54794;48.348;7.878;2024-03-17T10:11:17;99625.00;;;13.50
68012;BMP180;54794;48.348;7.878;2024-03-17T10:13:45;99621.00;;;13.60
68012;BMP180;54794;48.348;7.878;2024-03-17T10:16:28;99622.00;;;13.50
68012;BMP180;54794;48.348;7.878;2024-03-17T10:19:13;99628.00;;;13.00
68012;BMP180;54794;48.348;7.878;2024-03-17T10:21:42;99632.00;;;12.90
68012;BMP180;54794;48.348;7.878;2024-03-17T10:24:10;99632.00;;;13.50
68012;BMP180;54794;48.348;7.878;2024-03-17T10:29:28;99621.00;;;13.70
68012;BMP180;54794;48.348;7.878;2024-03-17T10:32:14;99632.00;;;13.40
68012;BMP180;54794;48.348;7.878;2024-03-17T10:34:41;99623.00;;;13.60
68012;BMP180;54794;48.348;7.878;2024-03-17T10:37:16;99622.00;;;13.80
68012;BMP180;54794;48.348;7.878;2024-03-17T10:39:51;99606.00;;;13.50
68012;BMP180;54794;48.348;7.878;2024-03-17T10:42:28;99609.00;;;13.50
68012;BMP180;54794;48.348;7.878;2024-03-17T10:44:54;99613.00;;;13.70
68012;BMP180;54794;48.348;7.878;2024-03-17T10:47:24;99608.00;;;14.10
68012;BMP180;54794;48.348;7.878;2024-03-17T10:49:55;99605.00;;;13.90
68012;BMP180;54794;48.348;7.878;2024-03-17T10:52:23;99615.00;;;13.80
68012;BMP180;54794;48.348;7.878;2024-03-17T10:54:55;99612.00;;;13.60
68012;BMP180;54794;48.348;7.878;2024-03-17T10:57:31;99619.00;;;13.80
68012;BMP180;54794;48.348;7.878;2024-03-17T11:00:00;99609.00;;;14.00
68012;BMP180;54794;48.348;7.878;2024-03-17T11:02:27;99609.00;;;14.30
68012;BMP180;54794;48.348;7.878;2024-03-17T11:05:00;99601.00;;;14.50
68012;BMP180;54794;48.348;7.878;2024-03-17T11:07:27;99615.00;;;14.20
68012;BMP180;54794;48.348;7.878;2024-03-17T11:09:55;99609.00;;;14.10
68012;BMP180;54794;48.348;7.878;2024-03-17T11:12:40;99607.00;;;14.30
68012;BMP180;54794;48.348;7.878;2024-03-17T11:17:50;99606.00;;;14.70
68012;BMP180;54794;48.348;7.878;2024-03-17T11:20:27;99603.00;;;14.70
68012;BMP180;54794;48.348;7.878;2024-03-17T11:22:59;99602.00;;;14.70
68012;BMP180;54794;48.348;7.878;2024-03-17T11:28:01;99593.00;;;14.80
68012;BMP180;54794;48.348;7.878;2024-03-17T11:39:07;99590.00;;;14.90
68012;BMP180;54794;48.348;7.878;2024-03-17T11:41:48;99588.00;;;14.70
68012;BMP180;54794;48.348;7.878;2024-03-17T11:46:54;99584.00;;;14.60
68012;BMP180;54794;48.348;7.878;2024-03-17T11:49:33;99587.00;;;15.10
68012;BMP180;54794;48.348;7.878;2024-03-17T11:52:02;99585.00;;;15.20
68012;BMP180;54794;48.348;7.878;2024-03-17T11:54:36;99586.00;;;14.60
68012;BMP180;54794;48.348;7.878;2024-03-17T11:57:09;99577.00;;;15.10
68012;BMP180;54794;48.348;7.878;2024-03-17T11:59:39;99575.00;;;15.40
68012;BMP180;54794;48.348;7.878;2024-03-17T12:02:19;99582.00;;;15.00
68012;BMP180;54794;48.348;7.878;2024-03-17T12:04:46;99586.00;;;14.90
68012;BMP180;54794;48.348;7.878;2024-03-17T12:07:15;99574.00;;;15.20
68012;BMP180;54794;48.348;7.878;2024-03-17T12:09:42;99565.00;;;15.20
68012;BMP180;54794;48.348;7.878;2024-03-17T12:12:16;99572.00;;;15.50
68012;BMP180;54794;48.348;7.878;2024-03-17T12:14:42;99563.00;;;15.10
68012;BMP180;54794;48.348;7.878;2024-03-17T12:17:11;99553.00;;;15.20
68012;BMP180;54794;48.348;7.878;2024-03-17T12:19:37;99567.00;;;14.50
68012;BMP180;54794;48.348;7.878;2024-03-17T12:22:06;99563.00;;;14.20
68012;BMP180;54794;48.348;7.878;2024-03-17T12:24:36;99568.00;;;14.10
68012;BMP180;54794;48.348;7.878;2024-03-17T12:27:06;99563.00;;;14.70
68012;BMP180;54794;48.348;7.878;2024-03-17T12:29:37;99554.00;;;14.30
68012;BMP180;54794;48.348;7.878;2024-03-17T12:34:39;99563.00;;;14.50
68012;BMP180;54794;48.348;7.878;2024-03-17T12:37:05;99546.00;;;14.80
68012;BMP180;54794;48.348;7.878;2024-03-17T12:39:34;99545.00;;;14.80
68012;BMP180;54794;48.348;7.878;2024-03-17T12:42:24;99541.00;;;15.30
68012;BMP180;54794;48.348;7.878;2024-03-17T12:45:01;99545.00;;;15.10
68012;BMP180;54794;48.348;7.878;2024-03-17T12:47:29;99547.00;;;15.40
68012;BMP180;54794;48.348;7.878;2024-03-17T12:49:57;99539.00;;;15.40
68012;BMP180;54794;48.348;7.878;2024-03-17T12:52:30;99537.00;;;15.30
68012;BMP180;54794;48.348;7.878;2024-03-17T12:57:50;99538.00;;;15.20
68012;BMP180;54794;48.348;7.878;2024-03-17T13:00:35;99533.00;;;15.40
68012;BMP180;54794;48.348;7.878;2024-03-17T13:03:05;99521.00;;;15.60
68012;BMP180;54794;48.348;7.878;2024-03-17T13:05:32;99517.00;;;15.60
68012;BMP180;54794;48.348;7.878;2024-03-17T13:07:58;99517.00;;;16.00
68012;BMP180;54794;48.348;7.878;2024-03-17T13:10:26;99507.00;;;16.40
68012;BMP180;54794;48.348;7.878;2024-03-17T13:13:03;99494.00;;;16.10
68012;BMP180;54794;48.348;7.878;2024-03-17T13:15:33;99505.00;;;16.30
68012;BMP180;54794;48.348;7.878;2024-03-17T13:18:02;99492.00;;;16.90
68012;BMP180;54794;48.348;7.878;2024-03-17T13:20:33;99500.00;;;16.30
68012;BMP180;54794;48.348;7.878;2024-03-17T13:22:59;99512.00;;;15.90
68012;BMP180;54794;48.348;7.878;2024-03-17T13:25:30;99495.00;;;15.80
68012;BMP180;54794;48.348;7.878;2024-03-17T13:28:00;99500.00;;;15.60
68012;BMP180;54794;48.348;7.878;2024-03-17T13:30:27;99494.00;;;15.50
68012;BMP180;54794;48.348;7.878;2024-03-17T13:32:55;99483.00;;;15.40
68012;BMP180;54794;48.348;7.878;2024-03-17T13:35:27;99480.00;;;15.80
68012;BMP180;54794;48.348;7.878;2024-03-17T13:37:55;99468.00;;;15.80
68012;BMP180;54794;48.348;7.878;2024-03-17T13:40:23;99469.00;;;15.50
68012;BMP180;54794;48.348;7.878;2024-03-17T13:42:51;99468.00;;;15.90
68012;BMP180;54794;48.348;7.878;2024-03-17T13:45:20;99460.00;;;16.00
68012;BMP180;54794;48.348;7.878;2024-03-17T13:47:56;99458.00;;;15.60
68012;BMP180;54794;48.348;7.878;2024-03-17T13:50:22;99462.00;;;15.60
68012;BMP180;54794;48.348;7.878;2024-03-17T13:52:49;99462.00;;;15.50
68012;BMP180;54794;48.348;7.878;2024-03-17T13:55:24;99461.00;;;15.70
68012;BMP180;54794;48.348;7.878;2024-03-17T13:57:55;99460.00;;;15.60
68012;BMP180;54794;48.348;7.878;2024-03-17T14:00:23;99462.00;;;15.80
68012;BMP180;54794;48.348;7.878;2024-03-17T14:02:52;99451.00;;;15.70
68012;BMP180;54794;48.348;7.878;2024-03-17T14:05:22;99442.00;;;15.20
68012;BMP180;54794;48.348;7.878;2024-03-17T14:07:57;99445.00;;;15.70
68012;BMP180;54794;48.348;7.878;2024-03-17T14:10:25;99428.00;;;15.70
68012;BMP180;54794;48.348;7.878;2024-03-17T14:12:51;99430.00;;;15.90
68012;BMP180;54794;48.348;7.878;2024-03-17T14:15:17;99428.00;;;16.00
68012;BMP180;54794;48.348;7.878;2024-03-17T14:17:47;99434.00;;;15.90
68012;BMP180;54794;48.348;7.878;2024-03-17T14:20:15;99422.00;;;15.70
68012;BMP180;54794;48.348;7.878;2024-03-17T14:22:45;99428.00;;;15.60
68012;BMP180;54794;48.348;7.878;2024-03-17T14:25:19;99424.00;;;15.80
68012;BMP180;54794;48.348;7.878;2024-03-17T14:27:46;99427.00;;;15.60
68012;BMP180;54794;48.348;7.878;2024-03-17T14:30:19;99431.00;;;15.70
68012;BMP180;54794;48.348;7.878;2024-03-17T14:32:46;99429.00;;;15.60
68012;BMP180;54794;48.348;7.878;2024-03-17T14:35:14;99430.00;;;15.60
68012;BMP180;54794;48.348;7.878;2024-03-17T14:37:42;99434.00;;;15.40
68012;BMP180;54794;48.348;7.878;2024-03-17T14:40:12;99431.00;;;15.60
68012;BMP180;54794;48.348;7.878;2024-03-17T14:42:43;99424.00;;;15.60
68012;BMP180;54794;48.348;7.878;2024-03-17T14:45:10;99427.00;;;15.80
68012;BMP180;54794;48.348;7.878;2024-03-17T14:47:36;99417.00;;;15.60
68012;BMP180;54794;48.348;7.878;2024-03-17T14:50:02;99412.00;;;15.50
68012;BMP180;54794;48.348;7.878;2024-03-17T14:52:28;99412.00;;;15.70